Time;durP1;ratioP1;P1;durP2;ratioP2;P2;SDS_P1;SDS_P2;PMS_P1;PMS_P2;Temp;Humidity;BMP_temperature;BMP_pressure;BME280_temperature;BME280_humidity;BME280_pressure;Samples;Min_cycle;Max_cycle;Signal;HPM_P1;HPM_P2
2021/07/02 00:03:04;;;;;;;4.40;3.83;;;18.40;43.50;;;;;;10450112;28;20217;-68
2021/07/02 00:08:07;;;;;;;5.63;4.07;;;18.40;43.60;;;;;;10454163;28;20231;-68
2021/07/02 00:13:11;;;;;;;3.93;3.63;;;18.50;43.50;;;;;;10449921;28;20232;-68
2021/07/02 00:18:15;;;;;;;4.43;4.03;;;18.50;43.50;;;;;;10447581;28;20235;-68
2021/07/02 00:23:18;;;;;;;4.17;3.80;;;18.50;43.80;;;;;;10455181;28;20256;-68
2021/07/02 00:28:22;;;;;;;4.20;3.80;;;18.50;43.60;;;;;;10451347;28;20236;-68
2021/07/02 00:33:27;;;;;;;4.50;4.10;;;18.50;43.60;;;;;;10458152;28;20228;-68
2021/07/02 00:38:30;;;;;;;5.60;4.67;;;18.50;43.80;;;;;;10456750;28;20240;-68
2021/07/02 00:43:35;;;;;;;4.27;3.43;;;18.50;43.50;;;;;;10453304;28;20236;-68
2021/07/02 00:48:39;;;;;;;5.97;3.97;;;18.40;43.50;;;;;;10449462;28;20780;-67
2021/07/02 00:53:43;;;;;;;4.87;4.23;;;18.40;44.00;;;;;;10457455;28;20233;-67
2021/07/02 00:58:47;;;;;;;4.70;4.30;;;18.40;43.90;;;;;;10446018;28;20230;-67
2021/07/02 01:03:52;;;;;;;4.40;4.00;;;18.40;43.70;;;;;;10444151;28;20224;-68
2021/07/02 01:08:56;;;;;;;5.83;4.40;;;18.40;44.10;;;;;;10450698;28;20828;-67
2021/07/02 01:13:59;;;;;;;4.13;3.70;;;18.30;43.90;;;;;;10446735;28;20225;-68
2021/07/02 01:19:03;;;;;;;5.50;4.13;;;18.30;43.90;;;;;;10454071;28;20774;-68
2021/07/02 01:24:08;;;;;;;4.97;4.17;;;18.30;44.30;;;;;;10456621;28;20217;-68
2021/07/02 01:29:11;;;;;;;5.77;4.20;;;18.30;44.40;;;;;;10451013;28;20923;-68
2021/07/02 01:34:14;;;;;;;5.40;3.80;;;18.40;44.20;;;;;;10450608;28;20705;-67
2021/07/02 01:39:19;;;;;;;4.80;3.90;;;18.40;44.30;;;;;;10451803;28;20226;-67
2021/07/02 01:44:22;;;;;;;7.27;4.07;;;18.40;44.40;;;;;;10447502;28;20244;-68
2021/07/02 01:49:25;;;;;;;5.60;4.20;;;18.50;44.30;;;;;;10449545;28;20237;-68
2021/07/02 01:54:29;;;;;;;4.77;4.37;;;18.50;44.10;;;;;;10454054;28;20230;-67
2021/07/02 01:59:32;;;;;;;5.07;4.07;;;18.40;44.10;;;;;;10447275;28;20765;-68
2021/07/02 02:04:36;;;;;;;4.20;3.80;;;18.40;44.20;;;;;;10450401;28;20224;-68
2021/07/02 02:09:40;;;;;;;5.53;3.97;;;18.30;44.10;;;;;;10444831;28;20232;-68
2021/07/02 02:14:44;;;;;;;7.47;4.47;;;18.20;44.40;;;;;;10447799;28;20227;-68
2021/07/02 02:19:47;;;;;;;4.43;4.03;;;18.20;44.40;;;;;;10451617;28;20233;-68
2021/07/02 02:24:51;;;;;;;5.60;4.17;;;18.20;44.40;;;;;;10454029;28;20228;-68
2021/07/02 02:29:55;;;;;;;4.50;3.80;;;18.10;44.90;;;;;;10447369;28;20285;-68
2021/07/02 02:34:58;;;;;;;4.47;4.07;;;18.20;44.60;;;;;;10454523;28;20227;-68
2021/07/02 02:40:03;;;;;;;4.23;3.83;;;18.20;44.80;;;;;;10448166;28;20235;-68
2021/07/02 02:45:08;;;;;;;4.13;3.80;;;18.20;45.10;;;;;;10447045;28;20220;-68
2021/07/02 02:50:11;;;;;;;5.17;3.70;;;18.20;44.80;;;;;;10449771;28;20255;-68
2021/07/02 02:55:16;;;;;;;4.50;3.43;;;18.30;44.70;;;;;;10427013;28;21316;-68
2021/07/02 03:00:19;;;;;;;5.60;3.80;;;18.30;44.70;;;;;;10440689;28;20232;-68
2021/07/02 03:05:22;;;;;;;4.30;3.90;;;18.40;44.60;;;;;;10448584;28;20725;-68
2021/07/02 03:10:27;;;;;;;4.53;4.13;;;18.40;44.50;;;;;;10444705;28;20615;-67
2021/07/02 03:15:31;;;;;;;4.33;3.87;;;18.30;44.60;;;;;;10448355;28;20236;-67
2021/07/02 03:20:34;;;;;;;4.33;3.80;;;18.30;44.50;;;;;;10447397;28;20240;-67
2021/07/02 03:25:39;;;;;;;4.17;3.77;;;18.30;44.50;;;;;;10460416;28;20229;-67
2021/07/02 03:30:42;;;;;;;4.77;4.10;;;18.30;44.70;;;;;;10454919;28;20752;-67
2021/07/02 03:35:45;;;;;;;3.97;3.40;;;18.40;44.70;;;;;;10455995;28;20642;-68
2021/07/02 03:40:50;;;;;;;4.90;4.10;;;18.40;44.30;;;;;;10451711;28;20238;-67
2021/07/02 03:45:53;;;;;;;5.60;4.27;;;18.40;44.40;;;;;;10444588;28;20225;-67
2021/07/02 03:50:56;;;;;;;4.87;4.40;;;18.40;44.10;;;;;;10456610;28;20225;-68
2021/07/02 03:56:01;;;;;;;4.43;4.00;;;18.30;44.00;;;;;;10451023;28;20224;-68
2021/07/02 04:01:04;;;;;;;8.13;5.13;;;18.20;44.10;;;;;;10453126;28;20235;-68
2021/07/02 04:06:08;;;;;;;6.63;4.70;;;18.20;44.00;;;;;;10455698;28;20231;-68
2021/07/02 04:11:12;;;;;;;5.23;4.77;;;18.10;44.10;;;;;;10455501;28;20220;-68
2021/07/02 04:16:15;;;;;;;7.47;4.43;;;18.00;44.40;;;;;;10451947;28;20228;-68
2021/07/02 04:21:19;;;;;;;6.90;4.90;;;18.00;44.40;;;;;;10452773;28;20217;-68
2021/07/02 04:26:23;;;;;;;5.27;4.70;;;18.00;44.40;;;;;;10450768;28;20237;-68
2021/07/02 04:31:26;;;;;;;5.70;4.97;;;18.00;44.50;;;;;;10456245;28;20636;-68
2021/07/02 04:36:30;;;;;;;5.10;4.47;;;18.00;44.40;;;;;;10451517;28;20328;-68
2021/07/02 04:41:34;;;;;;;5.70;4.77;;;18.00;44.50;;;;;;10455057;28;20221;-68
2021/07/02 04:46:38;;;;;;;8.20;5.03;;;17.90;44.50;;;;;;10447905;28;20225;-67
2021/07/02 04:51:41;;;;;;;5.37;4.87;;;17.90;44.60;;;;;;10453693;28;20309;-67
2021/07/02 04:56:47;;;;;;;5.30;4.80;;;18.00;44.70;;;;;;10452190;28;20595;-68
2021/07/02 05:01:50;;;;;;;6.23;4.93;;;18.00;44.70;;;;;;10455985;28;20269;-68
2021/07/02 05:06:55;;;;;;;7.30;4.80;;;18.10;44.70;;;;;;10455870;28;20226;-68
2021/07/02 05:11:59;;;;;;;5.87;5.13;;;18.10;44.60;;;;;;10448679;28;20224;-67
2021/07/02 05:17:04;;;;;;;5.97;5.47;;;18.20;44.70;;;;;;10448432;28;20229;-69
2021/07/02 05:22:09;;;;;;;5.50;5.00;;;18.20;44.70;;;;;;10443889;28;20257;-68
2021/07/02 05:27:14;;;;;;;5.63;5.13;;;18.20;44.60;;;;;;10449968;28;20221;-68
2021/07/02 05:32:17;;;;;;;7.40;5.30;;;18.20;44.80;;;;;;10444321;28;20901;-67
2021/07/02 05:37:41;;;;;;;6.30;5.43;;;18.20;44.60;;;;;;10453079;28;20700;-68
2021/07/02 05:42:46;;;;;;;6.47;4.90;;;18.30;44.80;;;;;;10448045;28;20561;-68
2021/07/02 05:47:50;;;;;;;5.47;4.97;;;18.40;44.70;;;;;;10456792;28;20232;-67
2021/07/02 05:52:55;;;;;;;8.17;5.37;;;18.50;44.70;;;;;;10453384;28;20224;-67
2021/07/02 05:58:00;;;;;;;5.83;5.23;;;18.50;44.80;;;;;;10450534;28;20230;-67
2021/07/02 06:03:04;;;;;;;4.97;4.47;;;18.60;44.50;;;;;;10449091;28;20228;-68
2021/07/02 06:08:07;;;;;;;5.93;5.10;;;18.60;44.60;;;;;;10443761;28;20232;-67
2021/07/02 06:13:11;;;;;;;5.80;5.13;;;18.70;44.70;;;;;;10448410;28;20627;-67
2021/07/02 06:18:15;;;;;;;5.80;5.30;;;18.70;44.70;;;;;;10449349;28;20334;-67
2021/07/02 06:23:18;;;;;;;5.23;4.70;;;18.70;45.00;;;;;;10446549;28;20239;-67
2021/07/02 06:28:23;;;;;;;5.60;5.10;;;18.70;44.60;;;;;;10435913;28;20268;-68
2021/07/02 06:33:26;;;;;;;5.47;4.97;;;18.80;44.60;;;;;;10444404;28;20229;-67
2021/07/02 06:38:29;;;;;;;6.20;5.67;;;18.90;44.70;;;;;;10446092;28;20221;-67
2021/07/02 06:43:34;;;;;;;5.23;4.73;;;18.90;44.50;;;;;;10447080;28;20258;-68
2021/07/02 06:48:37;;;;;;;5.40;4.90;;;18.90;44.80;;;;;;10452072;28;20236;-68
2021/07/02 06:53:40;;;;;;;5.90;5.30;;;18.90;44.50;;;;;;10451094;28;20220;-67
2021/07/02 06:58:49;;;;;;;5.77;5.27;;;19.00;44.70;;;;;;10454666;28;20228;-67
2021/07/02 07:03:52;;;;;;;5.63;5.13;;;19.10;44.40;;;;;;10455754;28;20228;-68
2021/07/02 07:08:55;;;;;;;5.60;5.20;;;19.10;44.40;;;;;;10455531;28;20225;-68
2021/07/02 07:14:00;;;;;;;5.83;5.27;;;19.20;44.50;;;;;;10440473;28;20228;-68
2021/07/02 07:19:03;;;;;;;5.87;5.33;;;19.30;44.50;;;;;;10448235;28;20260;-68
2021/07/02 07:24:06;;;;;;;6.20;5.40;;;19.40;44.40;;;;;;10458716;28;20221;-68
2021/07/02 07:29:11;;;;;;;6.00;5.40;;;19.50;44.10;;;;;;10450414;28;20295;-68
2021/07/02 07:34:22;;;;;;;5.77;5.17;;;19.50;44.30;;;;;;10446843;28;20223;-68
2021/07/02 07:39:26;;;;;;;5.70;5.10;;;19.40;44.10;;;;;;10450935;28;20232;-68
2021/07/02 07:44:30;;;;;;;6.13;5.53;;;19.50;44.10;;;;;;10451465;28;20228;-67
2021/07/02 07:49:34;;;;;;;6.03;5.43;;;19.60;43.90;;;;;;10454577;28;20226;-68
2021/07/02 07:54:37;;;;;;;6.30;5.70;;;19.60;44.00;;;;;;10445682;28;20221;-67
2021/07/02 07:59:41;;;;;;;6.53;5.00;;;19.70;43.70;;;;;;10446647;28;20573;-68
2021/07/02 08:04:45;;;;;;;8.03;5.57;;;19.70;43.70;;;;;;10447004;28;20558;-68
2021/07/02 08:09:48;;;;;;;5.97;5.37;;;19.80;44.10;;;;;;10439710;28;20233;-68
2021/07/02 08:14:52;;;;;;;6.67;5.43;;;20.00;44.30;;;;;;10441390;28;20221;-68
2021/07/02 08:19:56;;;;;;;6.00;5.40;;;20.10;43.80;;;;;;10452999;28;20230;-67
2021/07/02 08:24:59;;;;;;;7.87;6.47;;;20.20;43.60;;;;;;10445787;28;20235;-67
2021/07/02 08:30:05;;;;;;;6.20;5.53;;;20.30;43.70;;;;;;10454108;28;20615;-68
2021/07/02 08:35:09;;;;;;;5.90;5.40;;;20.40;42.50;;;;;;10451390;28;20723;-68
2021/07/02 08:40:13;;;;;;;5.80;5.20;;;20.40;42.40;;;;;;10448645;28;20229;-68
2021/07/02 08:45:18;;;;;;;6.00;5.40;;;20.50;42.90;;;;;;10450889;28;20231;-67
2021/07/02 08:50:22;;;;;;;6.27;5.20;;;20.70;41.90;;;;;;10451565;28;20232;-68
2021/07/02 08:55:26;;;;;;;5.33;4.83;;;20.70;42.40;;;;;;10447119;28;20607;-68
2021/07/02 09:00:31;;;;;;;4.90;4.50;;;20.80;41.60;;;;;;10438292;28;20228;-68
2021/07/02 09:05:36;;;;;;;5.73;5.07;;;20.80;40.80;;;;;;10440247;28;20245;-68
2021/07/02 09:10:40;;;;;;;6.37;5.43;;;20.90;41.60;;;;;;10438597;28;20622;-67
2021/07/02 09:15:46;;;;;;;6.40;5.30;;;21.10;41.00;;;;;;10448146;28;20217;-67
2021/07/02 09:20:50;;;;;;;5.60;5.10;;;21.20;39.00;;;;;;10452598;28;20221;-67
2021/07/02 09:25:54;;;;;;;4.90;4.47;;;21.30;41.10;;;;;;10453750;28;20712;-67
2021/07/02 09:31:00;;;;;;;4.50;4.10;;;21.50;40.80;;;;;;10451818;28;20221;-67
2021/07/02 09:36:03;;;;;;;4.50;4.10;;;21.70;39.50;;;;;;10451275;28;20227;-68
2021/07/02 09:41:08;;;;;;;4.50;4.20;;;21.80;39.00;;;;;;10447889;28;20231;-67
2021/07/02 09:46:12;;;;;;;4.60;4.20;;;21.90;38.20;;;;;;10450935;28;20228;-67
2021/07/02 09:51:24;;;;;;;4.77;4.37;;;21.90;37.50;;;;;;10446521;28;20224;-68
2021/07/02 09:56:28;;;;;;;4.80;4.23;;;22.00;35.00;;;;;;10445938;28;20225;-68
2021/07/02 10:01:32;;;;;;;4.83;4.00;;;22.00;37.70;;;;;;10438746;28;20237;-68
2021/07/02 10:06:35;;;;;;;4.37;4.07;;;22.00;36.20;;;;;;10441590;28;20348;-68
2021/07/02 10:11:42;;;;;;;4.73;4.30;;;22.10;37.50;;;;;;10438489;28;20279;-67
2021/07/02 10:16:47;;;;;;;4.63;4.30;;;22.20;35.70;;;;;;10438133;28;20229;-67
2021/07/02 10:21:51;;;;;;;5.27;4.07;;;22.20;36.00;;;;;;10447261;28;20529;-67
2021/07/02 10:26:55;;;;;;;4.53;4.13;;;22.20;36.70;;;;;;10449949;28;20854;-68
2021/07/02 10:31:59;;;;;;;5.03;4.63;;;22.20;37.30;;;;;;10454790;28;20216;-68
2021/07/02 10:37:03;;;;;;;4.20;3.90;;;22.10;35.40;;;;;;10439551;28;20642;-68
2021/07/02 10:42:08;;;;;;;4.43;4.03;;;22.10;36.70;;;;;;10448950;28;20225;-68
2021/07/02 10:47:16;;;;;;;4.67;4.27;;;22.20;36.50;;;;;;10441201;28;20221;-68
2021/07/02 10:52:23;;;;;;;5.10;4.60;;;22.30;36.70;;;;;;10434768;28;20221;-68
2021/07/02 10:57:31;;;;;;;4.90;4.50;;;22.30;35.10;;;;;;10444954;28;20772;-67
2021/07/02 11:02:36;;;;;;;5.10;4.70;;;22.40;36.30;;;;;;10443412;28;20236;-67
2021/07/02 11:07:44;;;;;;;5.20;4.80;;;22.40;35.20;;;;;;10436759;28;20315;-67
2021/07/02 11:13:05;;;;;;;4.33;3.93;;;22.30;34.70;;;;;;10439487;28;20236;-67
2021/07/02 11:18:17;;;;;;;4.50;4.10;;;22.40;33.10;;;;;;10439246;28;20233;-68
2021/07/02 11:23:25;;;;;;;4.87;4.47;;;22.40;33.60;;;;;;10443083;28;20233;-67
2021/07/02 11:28:48;;;;;;;4.43;4.10;;;22.40;34.70;;;;;;10444555;28;20678;-67
2021/07/02 11:34:11;;;;;;;6.10;4.53;;;22.50;34.80;;;;;;10442740;28;20248;-67
2021/07/02 11:39:18;;;;;;;4.83;4.47;;;22.70;33.20;;;;;;10441490;28;20229;-66
2021/07/02 11:44:21;;;;;;;4.93;4.53;;;22.90;34.30;;;;;;10453195;28;20229;-67
2021/07/02 11:49:25;;;;;;;4.73;4.30;;;22.90;35.70;;;;;;10448594;28;20229;-67
2021/07/02 11:54:29;;;;;;;4.53;4.13;;;22.90;34.70;;;;;;10455009;28;20781;-67
2021/07/02 11:59:32;;;;;;;5.73;4.50;;;22.90;35.00;;;;;;10451175;28;20228;-67
2021/07/02 12:04:36;;;;;;;5.50;5.00;;;22.80;35.00;;;;;;10452051;28;20233;-67
2021/07/02 12:09:42;;;;;;;4.83;4.40;;;22.70;34.30;;;;;;10447618;28;20231;-68
2021/07/02 12:14:47;;;;;;;4.50;4.20;;;22.80;35.30;;;;;;10451693;28;20234;-67
2021/07/02 12:19:52;;;;;;;4.80;4.30;;;22.80;35.10;;;;;;10459741;28;20696;-68
2021/07/02 12:24:55;;;;;;;8.10;4.50;;;23.00;35.20;;;;;;10452650;28;20751;-67
2021/07/02 12:29:59;;;;;;;5.53;4.60;;;23.20;35.70;;;;;;10444044;28;20225;-67
2021/07/02 12:35:09;;;;;;;4.80;4.17;;;23.30;35.40;;;;;;10448188;28;20331;-69
2021/07/02 12:40:14;;;;;;;4.73;4.33;;;23.50;34.20;;;;;;10443077;28;20250;-68
2021/07/02 12:45:19;;;;;;;4.97;4.37;;;23.60;35.30;;;;;;10450480;28;20229;-68
2021/07/02 12:50:23;;;;;;;4.97;4.47;;;23.60;34.00;;;;;;10457757;28;20267;-67
2021/07/02 12:55:27;;;;;;;4.73;4.33;;;23.60;33.50;;;;;;10450800;28;20220;-67
2021/07/02 13:00:32;;;;;;;4.80;4.33;;;23.60;34.00;;;;;;10452000;28;20252;-67
2021/07/02 13:05:38;;;;;;;4.70;4.30;;;23.70;33.80;;;;;;10452639;28;20237;-67
2021/07/02 13:10:43;;;;;;;4.37;3.97;;;23.80;33.40;;;;;;10437647;28;20229;-67
2021/07/02 13:16:05;;;;;;;4.93;4.53;;;23.90;33.30;;;;;;10449647;28;20225;-67
2021/07/02 13:21:12;;;;;;;4.60;4.30;;;23.90;32.10;;;;;;10451302;28;20296;-68
2021/07/02 13:26:20;;;;;;;5.00;4.60;;;23.90;32.10;;;;;;10445603;28;20239;-67
2021/07/02 13:31:26;;;;;;;4.63;4.23;;;24.00;31.50;;;;;;10452983;28;20954;-68
2021/07/02 13:36:37;;;;;;;4.67;4.27;;;24.00;31.30;;;;;;10445550;28;20319;-68
2021/07/02 13:41:41;;;;;;;4.07;3.77;;;23.90;31.00;;;;;;10453200;28;20738;-67
2021/07/02 13:46:44;;;;;;;4.47;4.17;;;23.80;32.80;;;;;;10448486;28;20233;-67
2021/07/02 13:51:49;;;;;;;4.33;3.97;;;23.90;33.20;;;;;;10455397;28;20235;-67
2021/07/02 13:56:52;;;;;;;4.20;3.90;;;24.00;32.50;;;;;;10451618;28;20818;-68
2021/07/02 14:01:56;;;;;;;4.63;4.23;;;24.20;33.10;;;;;;10448935;28;20232;-68
2021/07/02 14:07:01;;;;;;;4.23;3.93;;;24.30;32.90;;;;;;10447685;28;20789;-68
2021/07/02 14:12:05;;;;;;;3.97;3.67;;;24.50;31.70;;;;;;10446518;28;20221;-68
2021/07/02 14:17:08;;;;;;;4.43;4.10;;;24.50;31.70;;;;;;10448514;28;20712;-68
2021/07/02 14:22:14;;;;;;;4.00;3.70;;;24.60;32.10;;;;;;10449987;28;20221;-68
2021/07/02 14:27:18;;;;;;;5.13;4.03;;;24.70;31.50;;;;;;10442503;28;20220;-68
2021/07/02 14:32:32;;;;;;;4.73;4.30;;;24.80;31.90;;;;;;10446110;28;20701;-68
2021/07/02 14:37:37;;;;;;;4.33;4.03;;;24.90;32.10;;;;;;10447283;28;20239;-67
2021/07/02 14:42:41;;;;;;;5.00;4.60;;;24.90;30.40;;;;;;10448707;28;20229;-67
2021/07/02 14:47:45;;;;;;;4.90;4.50;;;24.90;30.80;;;;;;10447261;28;20244;-68
2021/07/02 14:52:50;;;;;;;5.13;4.70;;;24.90;30.80;;;;;;10448418;28;20756;-67
2021/07/02 14:57:53;;;;;;;4.30;4.00;;;24.90;30.20;;;;;;10446151;28;20235;-68
2021/07/02 15:02:57;;;;;;;4.93;4.53;;;24.90;30.90;;;;;;10452848;28;20221;-68
2021/07/02 15:08:01;;;;;;;4.43;4.07;;;25.00;30.00;;;;;;10445463;28;20600;-68
2021/07/02 15:13:05;;;;;;;4.50;4.10;;;25.00;29.70;;;;;;10449218;28;20222;-67
2021/07/02 15:18:08;;;;;;;4.43;4.13;;;25.00;29.80;;;;;;10444681;28;20244;-68
2021/07/02 15:23:13;;;;;;;4.43;4.10;;;25.10;30.00;;;;;;10444165;28;20228;-69
2021/07/02 15:28:16;;;;;;;4.33;4.03;;;25.20;29.00;;;;;;10454899;28;20230;-70
2021/07/02 15:33:19;;;;;;;4.00;3.70;;;25.20;29.60;;;;;;10455316;28;20216;-68
2021/07/02 15:38:23;;;;;;;4.63;4.17;;;25.30;29.70;;;;;;10453602;28;20240;-68
2021/07/02 15:43:26;;;;;;;4.77;4.37;;;25.30;28.80;;;;;;10449785;28;20247;-67
2021/07/02 15:48:30;;;;;;;4.67;4.33;;;25.30;29.00;;;;;;10454338;28;20236;-70
2021/07/02 15:53:35;;;;;;;4.50;4.20;;;25.00;28.80;;;;;;10447217;28;20229;-68
2021/07/02 15:58:39;;;;;;;3.97;3.67;;;25.20;28.80;;;;;;10455694;28;20287;-68
2021/07/02 16:03:42;;;;;;;4.30;4.00;;;25.20;29.40;;;;;;10454208;28;20233;-68
2021/07/02 16:08:46;;;;;;;4.03;3.73;;;25.30;29.20;;;;;;10449766;28;20239;-68
2021/07/02 16:13:51;;;;;;;4.20;3.80;;;25.40;28.90;;;;;;10445409;28;20769;-67
2021/07/02 16:18:54;;;;;;;4.17;3.87;;;25.60;29.00;;;;;;10441366;28;21233;-68
2021/07/02 16:23:59;;;;;;;4.33;4.03;;;25.70;29.00;;;;;;10450273;28;20228;-68
2021/07/02 16:29:03;;;;;;;4.07;3.77;;;25.70;28.70;;;;;;10447663;28;20575;-68
2021/07/02 16:34:07;;;;;;;4.43;4.07;;;25.80;29.10;;;;;;10455642;28;20424;-70
2021/07/02 16:39:11;;;;;;;4.97;3.60;;;25.80;29.10;;;;;;10451256;28;20670;-68
2021/07/02 16:44:14;;;;;;;4.13;3.77;;;25.80;28.60;;;;;;10450310;28;20221;-68
2021/07/02 16:49:18;;;;;;;4.53;4.13;;;25.90;28.90;;;;;;10452217;28;20233;-68
2021/07/02 16:54:22;;;;;;;4.70;4.30;;;25.90;28.60;;;;;;10448749;28;20225;-67
2021/07/02 16:59:26;;;;;;;4.80;4.40;;;25.80;28.20;;;;;;10446987;28;20229;-68
2021/07/02 17:04:29;;;;;;;4.27;3.97;;;25.80;29.10;;;;;;10444056;28;20260;-67
2021/07/02 17:09:33;;;;;;;4.97;4.57;;;25.80;29.10;;;;;;10449655;28;20247;-67
2021/07/02 17:14:37;;;;;;;5.20;4.80;;;25.80;29.10;;;;;;10444767;28;20220;-67
2021/07/02 17:19:40;;;;;;;8.33;4.87;;;25.80;29.10;;;;;;10458500;28;20239;-67
2021/07/02 17:24:44;;;;;;;4.20;3.90;;;25.80;29.10;;;;;;10443445;28;20233;-68
2021/07/02 17:29:48;;;;;;;4.63;4.30;;;25.80;29.10;;;;;;10446666;28;20659;-68
2021/07/02 17:34:56;;;;;;;4.67;4.27;;;25.80;29.10;;;;;;10449128;28;20221;-68
2021/07/02 17:40:02;;;;;;;6.97;4.40;;;25.90;29.10;;;;;;10452556;28;20244;-68
2021/07/02 17:45:06;;;;;;;4.10;3.80;;;25.90;29.10;;;;;;10447597;28;20217;-69
2021/07/02 17:50:11;;;;;;;4.93;4.53;;;25.90;29.10;;;;;;10447730;28;20957;-68
2021/07/02 17:55:16;;;;;;;4.30;4.00;;;25.80;29.10;;;;;;10443766;28;20244;-68
2021/07/02 18:00:20;;;;;;;4.57;4.17;;;25.80;29.10;;;;;;10453975;28;20239;-68
2021/07/02 18:05:23;;;;;;;4.20;3.90;;;25.80;29.10;;;;;;10447507;28;20228;-68
2021/07/02 18:10:28;;;;;;;4.60;4.20;;;25.80;29.10;;;;;;10445193;28;20237;-68
2021/07/02 18:15:31;;;;;;;4.20;3.90;;;25.80;29.10;;;;;;10448015;28;20248;-69
2021/07/02 18:20:39;;;;;;;4.17;3.87;;;25.80;29.10;;;;;;10450889;28;20275;-68
2021/07/02 18:25:43;;;;;;;4.93;4.43;;;25.80;29.10;;;;;;10452391;28;20229;-68
2021/07/02 18:30:46;;;;;;;4.93;4.00;;;25.70;29.10;;;;;;10447679;28;20232;-68
2021/07/02 18:35:50;;;;;;;4.80;4.40;;;25.70;29.60;;;;;;10442569;28;20228;-68
2021/07/02 18:40:55;;;;;;;4.40;4.10;;;25.50;29.40;;;;;;10448403;28;20236;-68
2021/07/02 18:45:59;;;;;;;4.33;4.03;;;25.40;29.00;;;;;;10447673;28;20229;-68
2021/07/02 18:51:02;;;;;;;4.40;4.10;;;25.20;29.50;;;;;;10435080;28;20225;-69
2021/07/02 18:56:06;;;;;;;4.63;4.20;;;25.10;29.60;;;;;;10435630;28;20221;-68
2021/07/02 19:01:10;;;;;;;4.47;4.13;;;24.90;29.70;;;;;;10435067;28;20228;-69
2021/07/02 19:06:15;;;;;;;4.40;4.10;;;24.80;29.90;;;;;;10438874;28;20235;-68
2021/07/02 19:11:20;;;;;;;4.20;3.80;;;24.70;30.00;;;;;;10428934;28;20224;-68
2021/07/02 19:16:24;;;;;;;4.60;4.30;;;24.60;30.20;;;;;;10432697;28;20248;-69
2021/07/02 19:21:28;;;;;;;5.60;4.70;;;24.50;30.10;;;;;;10448394;28;20229;-69
2021/07/02 19:26:33;;;;;;;4.83;4.47;;;24.40;30.40;;;;;;10449783;28;20232;-69
2021/07/02 19:31:37;;;;;;;5.20;4.53;;;24.10;30.00;;;;;;10446587;28;20220;-68
2021/07/02 19:36:40;;;;;;;6.17;4.33;;;23.90;30.10;;;;;;10444953;28;20312;-69
2021/07/02 19:41:45;;;;;;;4.50;4.10;;;23.60;30.30;;;;;;10439655;28;20237;-69
2021/07/02 19:46:48;;;;;;;5.47;4.93;;;23.40;30.60;;;;;;10439216;28;20839;-69
2021/07/02 19:51:52;;;;;;;5.33;4.27;;;23.30;30.90;;;;;;10446740;28;20715;-69
2021/07/02 19:56:57;;;;;;;4.53;4.23;;;23.20;31.10;;;;;;10438211;28;20229;-69
2021/07/02 20:02:02;;;;;;;5.43;4.20;;;23.10;31.40;;;;;;10447719;28;20221;-68
2021/07/02 20:07:05;;;;;;;5.07;4.57;;;23.00;31.20;;;;;;10450430;28;20229;-69
2021/07/02 20:12:11;;;;;;;4.40;4.00;;;22.90;31.20;;;;;;10452568;28;21003;-70
2021/07/02 20:17:14;;;;;;;4.53;4.23;;;22.90;31.30;;;;;;10450016;28;20884;-69
2021/07/02 20:22:18;;;;;;;4.90;4.50;;;22.80;31.30;;;;;;10447208;28;20603;-69
2021/07/02 20:27:23;;;;;;;4.40;4.00;;;22.80;31.20;;;;;;10451584;28;20263;-69
2021/07/02 20:32:26;;;;;;;5.10;4.60;;;22.60;31.30;;;;;;10450721;28;20279;-69
2021/07/02 20:37:30;;;;;;;4.87;4.47;;;22.40;31.20;;;;;;10444512;28;20230;-69
2021/07/02 20:42:34;;;;;;;6.37;5.07;;;22.30;31.20;;;;;;10452324;28;20229;-69
2021/07/02 20:47:40;;;;;;;6.90;5.07;;;22.10;31.50;;;;;;10445368;28;20283;-69
2021/07/02 20:52:44;;;;;;;5.27;4.87;;;21.90;31.60;;;;;;10445351;28;20235;-69
2021/07/02 20:57:49;;;;;;;5.20;4.70;;;21.70;31.90;;;;;;10450594;28;20606;-69
2021/07/02 21:02:52;;;;;;;5.50;5.00;;;21.60;32.30;;;;;;10448089;28;20221;-69
2021/07/02 21:08:02;;;;;;;5.07;4.63;;;21.50;32.20;;;;;;10452249;28;20236;-69
2021/07/02 21:13:06;;;;;;;5.03;4.63;;;21.40;32.20;;;;;;10448393;28;20632;-69
2021/07/02 21:18:10;;;;;;;4.80;4.40;;;21.30;32.50;;;;;;10445193;28;20240;-69
2021/07/02 21:23:13;;;;;;;5.47;4.33;;;21.10;32.30;;;;;;10450921;28;20290;-69
2021/07/02 21:28:18;;;;;;;5.30;4.90;;;20.90;32.40;;;;;;10446668;28;20232;-69
2021/07/02 21:33:21;;;;;;;7.30;4.73;;;20.80;32.80;;;;;;10445563;28;20597;-69
2021/07/02 21:38:24;;;;;;;5.03;4.63;;;20.60;32.80;;;;;;10443696;28;20229;-69
2021/07/02 21:43:30;;;;;;;4.43;4.13;;;20.50;33.10;;;;;;10449400;28;20220;-69
2021/07/02 21:48:33;;;;;;;4.80;4.40;;;20.50;33.60;;;;;;10443549;28;20237;-69
2021/07/02 21:53:36;;;;;;;4.70;4.30;;;20.40;33.40;;;;;;10448583;28;20752;-69
2021/07/02 21:58:41;;;;;;;4.47;4.07;;;20.40;33.40;;;;;;10448457;28;20225;-69
2021/07/02 22:03:44;;;;;;;4.47;4.07;;;20.40;33.70;;;;;;10444727;28;20247;-69
2021/07/02 22:08:47;;;;;;;3.97;3.67;;;20.40;33.30;;;;;;10441208;28;20762;-69
2021/07/02 22:13:52;;;;;;;4.57;4.23;;;20.30;33.30;;;;;;10450412;28;20331;-69
2021/07/02 22:18:55;;;;;;;4.60;4.20;;;20.30;34.60;;;;;;10447343;28;20228;-69
2021/07/02 22:23:59;;;;;;;5.07;4.57;;;20.20;34.30;;;;;;10447551;28;20229;-69
2021/07/02 22:29:04;;;;;;;5.20;4.70;;;20.20;33.80;;;;;;10444942;28;20218;-69
2021/07/02 22:34:08;;;;;;;4.07;3.77;;;20.10;33.80;;;;;;10446987;28;20221;-69
2021/07/02 22:39:12;;;;;;;5.07;4.60;;;20.00;33.30;;;;;;10447588;28;20225;-69
2021/07/02 22:44:17;;;;;;;4.93;4.53;;;19.80;33.60;;;;;;10451625;28;20240;-69
2021/07/02 22:49:20;;;;;;;4.93;4.43;;;19.70;33.90;;;;;;10447523;28;20320;-69
2021/07/02 22:54:23;;;;;;;5.23;4.83;;;19.50;33.80;;;;;;10455073;28;20224;-69
2021/07/02 22:59:27;;;;;;;5.10;4.70;;;19.50;34.20;;;;;;10448504;28;20236;-69
2021/07/02 23:04:31;;;;;;;5.30;4.83;;;19.40;34.30;;;;;;10449356;28;20225;-69
2021/07/02 23:09:34;;;;;;;4.70;4.30;;;19.30;34.20;;;;;;10449286;28;20229;-69
2021/07/02 23:14:39;;;;;;;4.13;3.83;;;19.30;34.30;;;;;;10443385;28;20241;-69
2021/07/02 23:19:42;;;;;;;4.40;4.00;;;19.20;34.50;;;;;;10445691;28;20229;-69
2021/07/02 23:24:45;;;;;;;5.27;4.77;;;19.20;34.30;;;;;;10453413;28;20228;-69
2021/07/02 23:29:50;;;;;;;6.57;4.50;;;19.10;34.40;;;;;;10444073;28;20233;-69
2021/07/02 23:34:53;;;;;;;5.23;4.63;;;19.00;34.30;;;;;;10444755;28;20236;-69
2021/07/02 23:39:57;;;;;;;4.27;3.90;;;18.80;34.00;;;;;;10452831;28;20236;-69
2021/07/02 23:45:01;;;;;;;4.70;4.27;;;18.60;34.30;;;;;;10454926;28;20236;-69
2021/07/02 23:50:05;;;;;;;5.10;4.70;;;18.40;35.10;;;;;;10451130;28;20232;-69
2021/07/02 23:55:10;;;;;;;4.77;4.37;;;18.40;35.10;;;;;;10453298;28;20225;-69
